ADDS TAF Data INFO
IDs: Format: Raw Decoded Include METARs

Data at: 0442 UTC 22 Apr 2018

KGUY 220359Z AUTO 02010KT 10SM FEW009 SCT015 OVC049 07/06 A3022 RMK AO2 T00670061

KGUY 220310Z 2203/2224 01011KT P6SM OVC050
  FM220700 35006KT P6SM FEW020 OVC050
  FM221100 35006KT 3SM BR OVC004
  FM221400 02010KT P6SM FEW030